New Orleans, Louisiana
Traffic Map
Current Weather Conditions
New Orleans, Louisiana
Clear
Clear
63°
Feels Like: 63°
Wind Chill: 63° Ceiling: Unl
Heat Index: 63° Visibility: 10mi
Dew Point: 45° Wind: 10mph
Humidity: 52% Direction: 40° (NE)
Pressure: 30.06in Gusts: 0mph
Raw Report DataKVSH 230755Z AUTO 04009KT 10SM CLR 17/07 A3006 RMK AO1
Traffic Incident Summary
Active as of:
Severity:
Category:
InformationThere was an issue retrieving the traffic information for this location. Please try a different location or try again shortly.
Advertisements
Track Severe Weather on mobile